createdAt,value
2023-05-08T00:01:07.410Z,12.96
2023-05-08T00:03:37.235Z,13.02
2023-05-08T00:06:07.396Z,13.00
2023-05-08T00:08:36.704Z,13.03
2023-05-08T00:11:06.115Z,12.99
2023-05-08T00:13:35.554Z,12.95
2023-05-08T00:16:04.865Z,12.93
2023-05-08T00:18:34.495Z,12.96
2023-05-08T00:21:03.741Z,12.92
2023-05-08T00:23:33.484Z,12.93
2023-05-08T00:26:03.196Z,12.94
2023-05-08T00:28:33.081Z,12.91
2023-05-08T00:31:02.562Z,12.82
2023-05-08T00:33:31.865Z,12.75
2023-05-08T00:36:05.714Z,12.58
2023-05-08T00:38:36.278Z,12.54
2023-05-08T00:41:05.577Z,12.50
2023-05-08T00:43:35.827Z,12.45
2023-05-08T00:46:05.379Z,12.23
2023-05-08T00:48:36.235Z,12.28
2023-05-08T00:51:07.724Z,12.16
2023-05-08T00:53:39.912Z,12.24
2023-05-08T00:56:14.303Z,12.16
2023-05-08T00:58:44.630Z,12.18
2023-05-08T01:01:14.385Z,12.13
2023-05-08T01:03:45.386Z,12.19
2023-05-08T01:06:14.807Z,12.30
2023-05-08T01:08:46.249Z,12.30
2023-05-08T01:11:27.211Z,12.33
2023-05-08T01:14:16.291Z,12.37
2023-05-08T01:17:06.412Z,12.28
2023-05-08T01:19:51.107Z,12.10
2023-05-08T01:22:41.561Z,12.12
2023-05-08T01:25:22.311Z,12.20
2023-05-08T01:28:00.887Z,12.15
2023-05-08T01:30:36.455Z,11.95
2023-05-08T01:33:32.016Z,11.91
2023-05-08T01:36:20.768Z,11.90
2023-05-08T01:39:17.545Z,11.99
2023-05-08T01:42:10.934Z,11.95
2023-05-08T01:44:42.769Z,11.96
2023-05-08T01:47:13.302Z,11.87
2023-05-08T01:49:49.736Z,11.64
2023-05-08T01:52:25.329Z,11.58
2023-05-08T01:55:02.713Z,11.66
2023-05-08T01:57:34.287Z,11.71
2023-05-08T02:00:05.140Z,11.84
2023-05-08T02:02:36.615Z,11.83
2023-05-08T02:05:07.783Z,11.83
2023-05-08T02:07:38.340Z,11.89
2023-05-08T02:10:10.015Z,11.96
2023-05-08T02:12:40.399Z,12.00
2023-05-08T02:15:11.246Z,12.07
2023-05-08T02:17:42.045Z,12.11
2023-05-08T02:20:15.223Z,12.21
2023-05-08T02:22:46.416Z,12.23
2023-05-08T02:25:16.764Z,12.24
2023-05-08T02:27:48.414Z,12.14
2023-05-08T02:30:20.164Z,12.09
2023-05-08T02:32:49.982Z,12.16
2023-05-08T02:35:21.135Z,12.06
2023-05-08T02:37:53.697Z,11.86
2023-05-08T02:40:23.069Z,11.71
2023-05-08T02:42:52.662Z,11.75
2023-05-08T02:45:24.980Z,11.94
2023-05-08T02:47:55.605Z,12.11
2023-05-08T02:50:28.046Z,12.22
2023-05-08T02:53:00.870Z,12.26
2023-05-08T02:55:42.361Z,12.18
2023-05-08T02:58:14.899Z,12.06
2023-05-08T03:00:47.734Z,12.18
2023-05-08T03:03:20.774Z,12.23
2023-05-08T03:05:55.858Z,12.28
2023-05-08T03:08:30.857Z,12.29
2023-05-08T03:11:03.347Z,12.40
2023-05-08T03:13:35.808Z,12.47
2023-05-08T03:16:07.254Z,12.50
2023-05-08T03:18:40.057Z,12.54
2023-05-08T03:21:11.342Z,12.54
2023-05-08T03:23:42.107Z,12.52
2023-05-08T03:26:12.241Z,12.61
2023-05-08T03:28:41.818Z,12.62
2023-05-08T03:31:12.754Z,12.75
2023-05-08T03:33:43.489Z,12.73
2023-05-08T03:36:13.577Z,12.76
2023-05-08T03:38:43.047Z,12.75
2023-05-08T03:41:13.414Z,12.78
2023-05-08T03:43:43.061Z,12.80
2023-05-08T03:46:12.735Z,12.81
2023-05-08T03:48:42.583Z,12.84
2023-05-08T03:51:13.606Z,12.78
2023-05-08T03:53:42.975Z,12.77
2023-05-08T03:56:12.327Z,12.78
2023-05-08T03:59:09.261Z,12.78
2023-05-08T04:01:43.775Z,12.77
2023-05-08T04:04:28.531Z,12.79
2023-05-08T04:07:06.401Z,12.78
2023-05-08T04:09:40.851Z,12.77
2023-05-08T04:12:25.691Z,12.79
2023-05-08T04:14:57.190Z,12.80
2023-05-08T04:17:39.046Z,12.82
2023-05-08T04:20:08.981Z,12.86
2023-05-08T04:22:39.817Z,12.81
2023-05-08T04:25:10.600Z,12.83
2023-05-08T04:27:41.643Z,12.88
2023-05-08T04:30:12.062Z,12.88
2023-05-08T04:32:43.490Z,12.88
2023-05-08T04:35:15.811Z,12.99
2023-05-08T04:37:45.933Z,13.00
2023-05-08T04:40:15.595Z,13.02
2023-05-08T04:42:47.494Z,13.02
2023-05-08T04:45:19.750Z,13.07
2023-05-08T04:47:49.329Z,13.08
2023-05-08T04:50:19.095Z,13.11
2023-05-08T04:52:48.839Z,13.16
2023-05-08T04:55:18.213Z,13.20
2023-05-08T04:57:48.187Z,13.20
2023-05-08T05:00:18.623Z,13.24
2023-05-08T05:02:48.441Z,13.27
2023-05-08T05:05:18.232Z,13.25
2023-05-08T05:07:47.926Z,13.26
2023-05-08T05:10:18.464Z,13.27
2023-05-08T05:12:48.319Z,13.27
2023-05-08T05:15:17.882Z,13.28
2023-05-08T05:17:47.556Z,13.31
2023-05-08T05:20:17.461Z,13.36
2023-05-08T05:22:47.022Z,13.37
2023-05-08T05:25:16.785Z,13.38
2023-05-08T05:27:46.827Z,13.41
2023-05-08T05:30:17.358Z,13.47
2023-05-08T05:32:47.089Z,13.49
2023-05-08T05:35:17.930Z,13.53
2023-05-08T05:37:48.329Z,13.57
2023-05-08T05:40:18.203Z,13.61
2023-05-08T05:42:51.720Z,13.68
2023-05-08T05:45:22.094Z,13.67
2023-05-08T05:47:53.503Z,13.68
2023-05-08T05:50:24.279Z,13.73
2023-05-08T05:52:54.300Z,13.75
2023-05-08T05:55:24.240Z,13.75
2023-05-08T05:57:53.676Z,13.77
2023-05-08T06:00:23.684Z,13.79
2023-05-08T06:02:54.750Z,13.88
2023-05-08T06:05:24.743Z,13.91
2023-05-08T06:07:54.183Z,13.80
2023-05-08T06:10:23.668Z,13.89
2023-05-08T06:12:53.426Z,13.88
2023-05-08T06:15:23.768Z,13.86
2023-05-08T06:17:54.085Z,13.83
2023-05-08T06:20:25.588Z,13.84
2023-05-08T06:22:54.640Z,13.81
2023-05-08T06:25:24.202Z,13.85
2023-05-08T06:27:53.544Z,13.76
2023-05-08T06:30:23.054Z,13.71
2023-05-08T06:32:52.372Z,13.75
2023-05-08T06:35:21.808Z,13.76
2023-05-08T06:37:51.137Z,13.77
2023-05-08T06:40:21.144Z,13.83
2023-05-08T06:42:51.077Z,13.79
2023-05-08T06:45:20.607Z,13.95
2023-05-08T06:47:49.955Z,14.02
2023-05-08T06:50:20.000Z,14.07
2023-05-08T06:52:49.673Z,13.96
2023-05-08T06:55:19.164Z,14.02
2023-05-08T06:57:48.833Z,14.01
2023-05-08T07:00:18.645Z,14.06
2023-05-08T07:02:47.964Z,14.14
2023-05-08T07:05:18.630Z,14.20
2023-05-08T07:07:48.116Z,14.26
2023-05-08T07:10:19.405Z,14.23
2023-05-08T07:12:49.359Z,14.19
2023-05-08T07:15:26.061Z,14.33
2023-05-08T07:17:50.637Z,14.31
2023-05-08T07:20:20.413Z,14.22
2023-05-08T07:22:49.688Z,14.28
2023-05-08T07:25:19.510Z,14.37
2023-05-08T07:27:48.850Z,14.57
2023-05-08T07:30:18.248Z,14.68
2023-05-08T07:32:47.820Z,14.89
2023-05-08T07:35:18.450Z,14.87
2023-05-08T07:37:47.716Z,15.19
2023-05-08T07:40:17.788Z,15.26
2023-05-08T07:42:47.034Z,15.35
2023-05-08T07:45:16.785Z,15.44
2023-05-08T07:47:54.274Z,15.61
2023-05-08T07:50:24.496Z,15.73
2023-05-08T07:52:54.410Z,16.08
2023-05-08T07:55:24.167Z,16.13
2023-05-08T07:57:53.445Z,16.39
2023-05-08T08:00:23.362Z,16.32
2023-05-08T08:02:52.982Z,16.51
2023-05-08T08:05:23.143Z,16.29
2023-05-08T08:07:52.422Z,16.37
2023-05-08T08:10:21.687Z,16.67
2023-05-08T08:12:51.013Z,17.01
2023-05-08T08:15:20.327Z,17.31
2023-05-08T08:17:49.615Z,17.41
2023-05-08T08:20:19.239Z,17.55
2023-05-08T08:22:48.501Z,17.58
2023-05-08T08:25:18.029Z,16.91
2023-05-08T08:27:47.373Z,16.93
2023-05-08T08:30:18.662Z,17.15
2023-05-08T08:32:48.024Z,17.38
2023-05-08T08:35:17.680Z,17.42
2023-05-08T08:37:47.291Z,17.43
2023-05-08T08:40:17.303Z,16.76
2023-05-08T08:42:47.254Z,16.71
2023-05-08T08:45:16.864Z,16.43
2023-05-08T08:47:47.102Z,16.36
2023-05-08T08:50:16.764Z,16.27
2023-05-08T08:52:54.880Z,16.35
2023-05-08T08:55:25.503Z,16.29
2023-05-08T08:58:26.714Z,16.45
2023-05-08T09:00:57.029Z,16.43
2023-05-08T09:03:27.019Z,16.67
2023-05-08T09:05:56.891Z,16.60
2023-05-08T09:08:26.228Z,16.67
2023-05-08T09:22:29.306Z,17.05
2023-05-08T09:25:36.054Z,16.93
2023-05-08T09:28:22.871Z,16.92
2023-05-08T09:30:56.527Z,17.17
2023-05-08T09:33:28.087Z,16.87
2023-05-08T09:35:58.279Z,17.49
2023-05-08T09:39:23.356Z,17.24
2023-05-08T09:41:59.317Z,17.33
2023-05-08T09:44:29.327Z,17.76
2023-05-08T09:50:56.433Z,18.38
2023-05-08T09:53:28.884Z,18.39
2023-05-08T09:55:57.497Z,19.99
2023-05-08T09:58:28.020Z,20.76
2023-05-08T10:00:58.318Z,21.69
2023-05-08T10:03:30.873Z,20.22
2023-05-08T10:06:03.442Z,19.77
2023-05-08T10:08:32.724Z,19.39
2023-05-08T10:11:17.248Z,20.38
2023-05-08T10:13:47.249Z,20.63
2023-05-08T10:16:19.273Z,21.24
2023-05-08T10:18:49.941Z,20.36
2023-05-08T10:21:20.496Z,19.69
2023-05-08T10:23:50.583Z,20.24
2023-05-08T10:26:23.504Z,20.13
2023-05-08T10:29:05.749Z,20.72
2023-05-08T10:31:40.470Z,20.46
2023-05-08T10:34:10.273Z,20.42
2023-05-08T10:36:39.847Z,20.10
2023-05-08T10:39:09.516Z,21.02
2023-05-08T10:41:39.741Z,21.51
2023-05-08T10:44:11.535Z,20.54
2023-05-08T10:46:56.024Z,19.37
2023-05-08T10:49:46.333Z,18.78
2023-05-08T10:52:18.782Z,18.91
2023-05-08T10:54:58.680Z,19.01
2023-05-08T10:57:28.522Z,19.39
2023-05-08T10:59:57.912Z,19.28
2023-05-08T11:05:47.997Z,18.74
2023-05-08T11:08:19.519Z,18.80
2023-05-08T11:10:52.658Z,18.39
2023-05-08T11:13:25.181Z,18.14
2023-05-08T11:15:55.176Z,18.25
2023-05-08T11:18:26.462Z,18.16
2023-05-08T11:20:59.467Z,18.24
2023-05-08T11:23:29.932Z,18.08
2023-05-08T11:26:06.621Z,18.24
2023-05-08T11:28:40.143Z,18.28
2023-05-08T11:31:10.311Z,18.78
2023-05-08T11:33:40.988Z,18.54
2023-05-08T11:36:15.597Z,18.67
2023-05-08T11:38:45.286Z,18.37
2023-05-08T11:41:25.415Z,18.21
2023-05-08T11:44:13.123Z,18.03
2023-05-08T11:46:45.684Z,17.79
2023-05-08T11:49:23.848Z,18.09
2023-05-08T11:51:53.824Z,18.09
2023-05-08T11:54:23.922Z,18.29
2023-05-08T11:56:57.788Z,18.55
2023-05-08T11:59:27.233Z,18.91
2023-05-08T12:02:07.560Z,18.87
2023-05-08T12:04:28.242Z,19.38
2023-05-08T12:06:59.537Z,19.45
2023-05-08T12:09:29.138Z,19.45
2023-05-08T12:11:59.223Z,19.67
2023-05-08T12:14:28.729Z,19.94
2023-05-08T12:16:58.077Z,19.89
2023-05-08T12:19:27.619Z,19.89
2023-05-08T12:21:58.538Z,19.96
2023-05-08T12:24:28.064Z,19.92
2023-05-08T12:26:57.351Z,19.70
2023-05-08T12:29:26.657Z,19.86
2023-05-08T12:31:56.064Z,19.49
2023-05-08T12:34:25.502Z,19.25
2023-05-08T12:37:05.393Z,19.56
2023-05-08T12:39:38.008Z,19.32
2023-05-08T12:42:06.879Z,19.05
2023-05-08T12:44:36.034Z,19.26
2023-05-08T12:47:06.767Z,19.40
2023-05-08T12:49:36.101Z,19.16
2023-05-08T12:52:09.466Z,18.76
2023-05-08T12:54:41.035Z,18.61
2023-05-08T12:57:14.538Z,18.28
2023-05-08T12:59:44.891Z,17.61
2023-05-08T13:02:17.021Z,17.32
2023-05-08T13:04:47.079Z,17.45
2023-05-08T13:07:16.548Z,17.68
2023-05-08T13:10:03.804Z,17.96
2023-05-08T13:12:33.333Z,17.77
2023-05-08T13:15:04.245Z,17.58
2023-05-08T13:17:34.352Z,17.62
2023-05-08T13:20:06.120Z,17.42
2023-05-08T13:22:35.139Z,17.58
2023-05-08T13:25:04.921Z,17.61
2023-05-08T13:27:34.297Z,17.79
2023-05-08T13:30:03.899Z,18.06
2023-05-08T13:32:33.267Z,18.33
2023-05-08T13:35:02.579Z,18.27
2023-05-08T13:37:32.103Z,18.43
2023-05-08T13:40:01.397Z,18.60
2023-05-08T13:42:30.654Z,18.38
2023-05-08T13:44:59.993Z,18.41
2023-05-08T13:47:29.957Z,18.51
2023-05-08T13:49:59.329Z,18.62
2023-05-08T13:52:30.599Z,18.80
2023-05-08T13:55:00.239Z,19.41
2023-05-08T13:57:29.593Z,19.73
2023-05-08T13:59:59.312Z,19.73
2023-05-08T14:02:29.349Z,19.52
2023-05-08T14:04:58.779Z,20.38
2023-05-08T14:07:28.419Z,20.45
2023-05-08T14:09:58.271Z,20.32
2023-05-08T14:12:27.619Z,19.92
2023-05-08T14:14:57.448Z,19.12
2023-05-08T14:17:26.748Z,19.12
2023-05-08T14:19:56.327Z,18.89
2023-05-08T14:22:25.715Z,18.73
2023-05-08T14:24:55.428Z,18.63
2023-05-08T14:27:24.786Z,18.81
2023-05-08T14:29:55.584Z,18.58
2023-05-08T14:32:24.971Z,18.79
2023-05-08T14:34:54.395Z,18.61
2023-05-08T14:37:23.987Z,18.54
2023-05-08T14:39:55.686Z,18.48
2023-05-08T14:42:25.150Z,18.51
2023-05-08T14:44:55.997Z,18.31
2023-05-08T14:47:25.760Z,18.16
2023-05-08T14:49:55.071Z,18.14
2023-05-08T14:52:24.909Z,18.13
2023-05-08T14:54:54.490Z,18.11
2023-05-08T14:57:23.942Z,18.32
2023-05-08T14:59:55.533Z,18.33
2023-05-08T15:02:25.227Z,18.26
2023-05-08T15:04:54.918Z,18.07
2023-05-08T15:07:24.177Z,18.25
2023-05-08T15:09:53.654Z,18.29
2023-05-08T15:12:22.994Z,18.19
2023-05-08T15:14:52.394Z,18.31
2023-05-08T15:17:22.172Z,18.37
2023-05-08T15:19:51.776Z,18.23
2023-05-08T15:22:21.653Z,18.18
2023-05-08T15:24:51.288Z,18.11
2023-05-08T15:27:20.760Z,18.13
2023-05-08T15:29:50.358Z,18.42
2023-05-08T15:32:19.749Z,18.48
2023-05-08T15:34:49.650Z,18.39
2023-05-08T15:37:19.088Z,18.18
2023-05-08T15:39:50.262Z,18.05
2023-05-08T15:42:20.662Z,17.94
2023-05-08T15:47:22.856Z,17.56
2023-05-08T15:49:52.663Z,17.42
2023-05-08T15:52:22.834Z,17.23
2023-05-08T15:54:52.313Z,17.37
2023-05-08T15:57:21.807Z,17.57
2023-05-08T15:59:51.407Z,17.90
2023-05-08T16:02:21.030Z,17.79
2023-05-08T16:04:50.350Z,17.97
2023-05-08T16:07:19.629Z,18.05
2023-05-08T16:09:49.149Z,17.76
2023-05-08T16:12:19.822Z,17.75
2023-05-08T16:14:49.154Z,17.36
2023-05-08T16:17:18.675Z,16.80
2023-05-08T16:19:48.066Z,16.76
2023-05-08T16:22:17.592Z,16.78
2023-05-08T16:24:46.950Z,16.73
2023-05-08T16:27:16.384Z,16.73
2023-05-08T16:29:45.881Z,16.57
2023-05-08T16:32:16.229Z,16.58
2023-05-08T16:34:45.817Z,16.52
2023-05-08T16:37:15.065Z,16.28
2023-05-08T16:39:44.763Z,16.14
2023-05-08T16:42:14.024Z,16.18
2023-05-08T16:44:43.408Z,16.13
2023-05-08T16:47:12.817Z,16.03
2023-05-08T16:49:42.255Z,15.91
2023-05-08T16:52:11.594Z,15.92
2023-05-08T16:54:40.872Z,16.04
2023-05-08T16:57:10.187Z,16.01
2023-05-08T16:59:41.250Z,15.86
2023-05-08T17:02:11.973Z,15.82
2023-05-08T17:04:41.279Z,15.82
2023-05-08T17:07:10.560Z,15.78
2023-05-08T17:09:40.086Z,16.00
2023-05-08T17:12:09.825Z,16.15
2023-05-08T17:14:40.834Z,16.19
2023-05-08T17:17:10.273Z,16.12
2023-05-08T17:19:39.808Z,16.39
2023-05-08T17:22:09.129Z,16.27
2023-05-08T17:24:44.715Z,16.27
2023-05-08T17:27:14.026Z,16.43
2023-05-08T17:29:43.875Z,16.43
2023-05-08T17:32:13.248Z,16.29
2023-05-08T17:34:42.608Z,16.16
2023-05-08T17:37:11.958Z,16.12
2023-05-08T17:39:41.476Z,16.18
2023-05-08T17:42:10.908Z,16.21
2023-05-08T17:44:40.489Z,16.12
2023-05-08T17:47:09.780Z,15.95
2023-05-08T17:49:39.308Z,15.90
2023-05-08T17:52:08.675Z,15.72
2023-05-08T17:54:37.984Z,15.74
2023-05-08T17:57:07.318Z,15.78
2023-05-08T17:59:36.812Z,15.73
2023-05-08T18:02:06.128Z,15.75
2023-05-08T18:04:35.574Z,15.78
2023-05-08T18:07:04.913Z,15.72
2023-05-08T18:09:34.571Z,15.64
2023-05-08T18:12:04.231Z,15.57
2023-05-08T18:14:34.146Z,15.49
2023-05-08T18:17:03.541Z,15.52
2023-05-08T18:19:33.200Z,15.52
2023-05-08T18:22:02.554Z,15.48
2023-05-08T18:24:31.961Z,15.42
2023-05-08T18:27:01.293Z,15.43
2023-05-08T18:29:31.129Z,15.35
2023-05-08T18:32:00.680Z,15.43
2023-05-08T18:34:31.494Z,15.43
2023-05-08T18:37:00.768Z,15.38
2023-05-08T18:39:30.045Z,15.37
2023-05-08T18:41:59.417Z,15.27
2023-05-08T18:44:28.950Z,15.18
2023-05-08T18:46:58.261Z,15.15
2023-05-08T18:49:27.813Z,15.07
2023-05-08T18:51:57.094Z,14.93
2023-05-08T18:54:27.281Z,14.83
2023-05-08T18:56:56.927Z,14.78
2023-05-08T18:59:26.338Z,14.64
2023-05-08T19:01:55.719Z,14.56
2023-05-08T19:04:25.108Z,14.46
2023-05-08T19:06:55.713Z,14.43
2023-05-08T19:09:25.109Z,14.40
2023-05-08T19:11:54.697Z,14.34
2023-05-08T19:14:24.383Z,14.31
2023-05-08T19:16:55.050Z,14.34
2023-05-08T19:19:25.393Z,14.35
2023-05-08T19:21:54.705Z,14.27
2023-05-08T19:24:25.764Z,14.21
2023-05-08T19:26:55.085Z,14.19
2023-05-08T19:29:25.243Z,14.30
2023-05-08T19:31:56.625Z,14.34
2023-05-08T19:34:26.568Z,14.26
2023-05-08T19:36:55.923Z,14.17
2023-05-08T19:39:25.727Z,14.28
2023-05-08T19:41:55.322Z,14.26
2023-05-08T19:44:26.002Z,14.34
2023-05-08T19:46:55.709Z,14.39
2023-05-08T19:49:25.125Z,14.43
2023-05-08T19:51:54.611Z,14.42
2023-05-08T19:54:23.897Z,14.46
2023-05-08T19:56:53.711Z,14.45
2023-05-08T19:59:23.110Z,14.42
2023-05-08T20:01:53.673Z,14.44
2023-05-08T20:04:24.286Z,14.42
2023-05-08T20:06:53.773Z,14.40
2023-05-08T20:09:23.118Z,14.42
2023-05-08T20:11:52.388Z,14.54
2023-05-08T20:14:21.690Z,14.46
2023-05-08T20:16:51.215Z,14.42
2023-05-08T20:19:20.574Z,14.41
2023-05-08T20:21:50.408Z,14.36
2023-05-08T20:24:19.733Z,14.33
2023-05-08T20:26:49.501Z,14.28
2023-05-08T20:29:18.844Z,14.25
2023-05-08T20:31:48.461Z,14.22
2023-05-08T20:34:20.335Z,14.18
2023-05-08T20:36:49.231Z,14.21
2023-05-08T20:39:18.825Z,14.24
2023-05-08T20:41:48.136Z,14.19
2023-05-08T20:44:19.429Z,14.14
2023-05-08T20:46:48.693Z,14.18
2023-05-08T20:49:18.321Z,14.23
2023-05-08T20:51:47.612Z,14.26
2023-05-08T20:54:17.498Z,14.23
2023-05-08T20:56:46.759Z,14.25
2023-05-08T20:59:16.946Z,14.12
2023-05-08T21:01:46.284Z,14.03
2023-05-08T21:04:15.651Z,14.02
2023-05-08T21:06:44.964Z,14.01
2023-05-08T21:09:14.214Z,13.99
2023-05-08T21:11:43.836Z,14.00
2023-05-08T21:14:13.291Z,14.10
2023-05-08T21:16:42.910Z,14.12
2023-05-08T21:19:13.868Z,14.09
2023-05-08T21:21:43.238Z,14.11
2023-05-08T21:24:12.706Z,14.11
2023-05-08T21:26:42.184Z,13.99
2023-05-08T21:29:11.742Z,13.90
2023-05-08T21:31:41.489Z,13.84
2023-05-08T21:34:11.046Z,13.81
2023-05-08T21:36:40.510Z,13.78
2023-05-08T21:39:10.097Z,13.80
2023-05-08T21:41:39.558Z,13.79
2023-05-08T21:44:10.867Z,13.80
2023-05-08T21:46:40.762Z,13.76
2023-05-08T21:49:10.945Z,13.77
2023-05-08T21:51:40.224Z,13.77
2023-05-08T21:54:10.458Z,13.75
2023-05-08T21:56:40.469Z,13.77
2023-05-08T21:59:10.039Z,13.70
2023-05-08T22:01:39.365Z,13.69
2023-05-08T22:04:09.058Z,13.68
2023-05-08T22:06:38.418Z,13.68
2023-05-08T22:09:07.694Z,13.69
2023-05-08T22:11:37.036Z,13.70
2023-05-08T22:14:06.330Z,13.71
2023-05-08T22:16:36.105Z,13.70
2023-05-08T22:19:05.455Z,13.67
2023-05-08T22:21:35.465Z,13.72
2023-05-08T22:24:05.316Z,13.70
2023-05-08T22:26:34.596Z,13.74
2023-05-08T22:29:04.164Z,13.66
2023-05-08T22:31:33.492Z,13.67
2023-05-08T22:34:02.902Z,13.70
2023-05-08T22:36:32.662Z,13.67
2023-05-08T22:39:01.924Z,13.65
2023-05-08T22:41:32.602Z,13.64
2023-05-08T22:44:02.065Z,13.66
2023-05-08T22:46:33.299Z,13.61
2023-05-08T22:49:02.777Z,13.59
2023-05-08T22:51:32.661Z,13.58
2023-05-08T22:54:02.169Z,13.56
2023-05-08T22:56:31.943Z,13.56
2023-05-08T22:59:01.517Z,13.53
2023-05-08T23:01:31.181Z,13.55
2023-05-08T23:04:00.535Z,13.55
2023-05-08T23:06:29.883Z,13.55
2023-05-08T23:08:59.442Z,13.51
2023-05-08T23:11:28.949Z,13.52
2023-05-08T23:13:58.238Z,13.47
2023-05-08T23:16:27.541Z,13.47
2023-05-08T23:18:56.893Z,13.45
2023-05-08T23:21:26.191Z,13.46
2023-05-08T23:23:55.524Z,13.44
2023-05-08T23:26:25.079Z,13.40
2023-05-08T23:28:54.391Z,13.38
2023-05-08T23:31:23.762Z,13.36
2023-05-08T23:33:53.112Z,13.31
2023-05-08T23:36:22.831Z,13.36
2023-05-08T23:38:52.127Z,13.29
2023-05-08T23:41:21.475Z,13.33
2023-05-08T23:43:51.172Z,13.29
2023-05-08T23:46:20.977Z,13.27
2023-05-08T23:48:50.329Z,13.24
2023-05-08T23:51:19.644Z,13.23
2023-05-08T23:53:50.070Z,13.24
2023-05-08T23:56:19.677Z,13.24
2023-05-08T23:58:48.962Z,13.27
